createdAt,value
2018-03-03T00:00:02.292Z,98113.32
2018-03-03T00:02:28.546Z,98111.60
2018-03-03T00:04:54.938Z,98106.29
2018-03-03T00:07:21.409Z,98094.56
2018-03-03T00:09:47.922Z,98083.30
2018-03-03T00:12:14.339Z,98082.12
2018-03-03T00:14:40.674Z,98087.39
2018-03-03T00:17:07.186Z,98078.44
2018-03-03T00:19:33.584Z,98074.03
2018-03-03T00:21:59.988Z,98059.98
2018-03-03T00:24:26.381Z,98055.77
2018-03-03T00:26:52.797Z,98044.70
2018-03-03T00:29:19.150Z,98040.98
2018-03-03T00:31:45.530Z,98060.30
2018-03-03T00:34:11.906Z,98040.42
2018-03-03T00:36:38.266Z,98033.78
2018-03-03T00:39:04.656Z,98030.41
2018-03-03T00:41:31.057Z,98043.42
2018-03-03T00:43:57.416Z,98047.55
2018-03-03T00:46:23.804Z,98029.41
2018-03-03T00:48:50.169Z,98050.51
2018-03-03T00:51:16.553Z,98043.36
2018-03-03T00:53:42.924Z,98057.45
2018-03-03T00:56:09.325Z,98044.69
2018-03-03T00:58:35.695Z,98042.97
2018-03-03T01:01:02.118Z,98042.06
2018-03-03T01:03:28.510Z,98043.16
2018-03-03T01:05:54.910Z,98051.63
2018-03-03T01:08:21.359Z,98041.62
2018-03-03T01:10:54.646Z,98031.95
2018-03-03T01:13:21.018Z,97997.17
2018-03-03T01:15:47.642Z,98021.83
2018-03-03T01:18:14.052Z,98016.29
2018-03-03T01:20:40.412Z,98007.25
2018-03-03T01:23:06.788Z,98052.76
2018-03-03T01:25:33.133Z,98059.19
2018-03-03T01:27:59.568Z,98035.59
2018-03-03T01:30:25.905Z,98049.32
2018-03-03T01:32:52.306Z,98051.08
2018-03-03T01:35:18.661Z,98058.90
2018-03-03T01:37:45.002Z,98051.23
2018-03-03T01:40:11.345Z,98053.72
2018-03-03T01:42:37.718Z,98048.45
2018-03-03T01:45:04.061Z,98045.30
2018-03-03T01:47:30.407Z,98031.30
2018-03-03T01:49:56.737Z,98037.58
2018-03-03T01:52:23.079Z,98027.94
2018-03-03T01:54:49.423Z,98027.00
2018-03-03T01:57:15.772Z,98036.02
2018-03-03T01:59:42.181Z,98042.44
2018-03-03T02:02:08.546Z,98024.30
2018-03-03T02:04:34.916Z,98005.86
2018-03-03T02:07:01.443Z,97982.22
2018-03-03T02:09:27.789Z,97989.27
2018-03-03T02:11:54.153Z,97996.93
2018-03-03T02:14:20.501Z,97994.44
2018-03-03T02:16:46.878Z,97987.58
2018-03-03T02:19:13.376Z,97990.23
2018-03-03T02:21:39.718Z,97987.63
2018-03-03T02:24:06.079Z,97993.95
2018-03-03T02:26:32.493Z,97996.27
2018-03-03T02:28:58.838Z,98006.56
2018-03-03T02:31:25.206Z,98004.30
2018-03-03T02:33:51.590Z,98006.23
2018-03-03T02:36:17.962Z,97993.62
2018-03-03T02:38:44.326Z,97977.14
2018-03-03T02:41:10.705Z,97996.91
2018-03-03T02:43:37.082Z,97988.42
2018-03-03T02:46:03.426Z,97996.84
2018-03-03T02:48:29.951Z,97993.18
2018-03-03T02:50:56.350Z,97970.50
2018-03-03T02:53:22.718Z,97971.80
2018-03-03T02:55:49.092Z,97988.11
2018-03-03T02:58:15.485Z,97992.88
2018-03-03T03:00:41.853Z,97974.56
2018-03-03T03:03:08.243Z,97970.33
2018-03-03T03:05:34.654Z,97966.98
2018-03-03T03:08:01.017Z,97966.45
2018-03-03T03:10:27.365Z,97949.03
2018-03-03T03:12:53.794Z,97963.75
2018-03-03T03:15:20.169Z,97976.91
2018-03-03T03:17:46.522Z,97968.31
2018-03-03T03:20:12.913Z,97986.09
2018-03-03T03:22:39.286Z,97997.95
2018-03-03T03:25:05.683Z,98004.19
2018-03-03T03:27:32.090Z,98011.77
2018-03-03T03:29:58.464Z,98041.84
2018-03-03T03:32:24.825Z,98052.92
2018-03-03T03:34:51.286Z,98065.92
2018-03-03T03:37:17.686Z,98052.66
2018-03-03T03:39:44.096Z,98059.98
2018-03-03T03:42:10.482Z,98076.37
2018-03-03T03:44:36.883Z,98051.40
2018-03-03T03:47:03.270Z,98052.38
2018-03-03T03:49:29.626Z,98079.16
2018-03-03T03:51:55.998Z,98067.95
2018-03-03T03:54:22.361Z,98054.70
2018-03-03T03:56:48.735Z,98024.53
2018-03-03T03:59:15.082Z,98036.34
2018-03-03T04:01:41.418Z,98043.41
2018-03-03T04:04:07.817Z,98039.18
2018-03-03T04:06:34.178Z,98007.52
2018-03-03T04:09:00.556Z,98010.23
2018-03-03T04:11:27.079Z,98006.93
2018-03-03T04:13:53.469Z,97981.19
2018-03-03T04:16:19.833Z,97931.18
2018-03-03T04:18:46.242Z,97879.92
2018-03-03T04:21:12.639Z,97889.87
2018-03-03T04:23:39.129Z,97932.02
2018-03-03T04:26:05.581Z,97961.43
2018-03-03T04:28:32.041Z,97934.18
2018-03-03T04:30:58.530Z,97963.15
2018-03-03T04:33:24.989Z,98019.75
2018-03-03T04:35:51.422Z,98088.63
2018-03-03T04:38:17.859Z,98075.43
2018-03-03T04:40:44.261Z,98103.27
2018-03-03T04:43:10.677Z,98096.98
2018-03-03T04:45:37.050Z,98107.34
2018-03-03T04:48:03.489Z,98099.17
2018-03-03T04:50:29.978Z,98097.70
2018-03-03T04:52:56.654Z,98095.96
2018-03-03T04:55:23.107Z,98103.14
2018-03-03T04:57:49.586Z,98086.92
2018-03-03T05:00:19.997Z,98084.77
2018-03-03T05:16:17.542Z,98090.23
2018-03-03T05:18:49.817Z,98099.70
2018-03-03T05:21:34.133Z,98095.52
2018-03-03T05:24:07.417Z,98086.65
2018-03-03T05:26:53.585Z,98089.92
2018-03-03T05:29:25.995Z,98084.25
2018-03-03T05:31:58.509Z,98079.94
2018-03-03T05:34:30.797Z,98089.53
2018-03-03T05:37:03.154Z,98091.71
2018-03-03T05:39:49.273Z,98098.50
2018-03-03T05:55:44.247Z,98115.41
2018-03-03T05:58:27.331Z,98103.84
2018-03-03T06:01:09.574Z,98098.84
2018-03-03T06:03:41.847Z,98105.03
2018-03-03T06:06:23.873Z,98110.53
2018-03-03T06:08:51.138Z,98112.52
2018-03-03T06:11:17.549Z,98117.27
2018-03-03T06:13:43.962Z,98107.64
2018-03-03T06:16:10.298Z,98102.24
2018-03-03T06:18:37.366Z,98089.88
2018-03-03T06:21:03.755Z,98102.75
2018-03-03T06:23:30.091Z,98116.14
2018-03-03T06:25:56.443Z,98121.05
2018-03-03T06:28:22.826Z,98127.73
2018-03-03T06:30:49.163Z,98125.37
2018-03-03T06:33:15.557Z,98122.70
2018-03-03T06:35:41.930Z,98126.97
2018-03-03T06:38:08.278Z,98135.95
2018-03-03T06:40:34.679Z,98132.94
2018-03-03T06:43:01.024Z,98126.86
2018-03-03T06:45:27.376Z,98128.72
2018-03-03T06:47:53.727Z,98125.77
2018-03-03T06:50:20.103Z,98129.19
2018-03-03T06:52:46.558Z,98141.39
2018-03-03T06:55:12.921Z,98142.48
2018-03-03T06:57:39.295Z,98155.00
2018-03-03T07:00:05.659Z,98151.97
2018-03-03T07:02:32.005Z,98149.95
2018-03-03T07:04:58.338Z,98146.93
2018-03-03T07:07:24.717Z,98134.70
2018-03-03T07:09:51.070Z,98126.78
2018-03-03T07:12:17.480Z,98117.93
2018-03-03T07:14:48.697Z,98123.02
2018-03-03T07:17:15.035Z,98126.84
2018-03-03T07:19:41.422Z,98119.34
2018-03-03T07:22:07.950Z,98117.98
2018-03-03T07:24:34.310Z,98127.11
2018-03-03T07:27:00.693Z,98125.78
2018-03-03T07:29:27.048Z,98138.03
2018-03-03T07:31:53.440Z,98146.12
2018-03-03T07:34:19.847Z,98154.03
2018-03-03T07:36:46.277Z,98156.41
2018-03-03T07:39:12.647Z,98150.45
2018-03-03T07:41:39.038Z,98140.42
2018-03-03T07:44:05.390Z,98138.66
2018-03-03T07:46:31.798Z,98135.91
2018-03-03T07:48:58.198Z,98135.53
2018-03-03T07:51:24.586Z,98137.61
2018-03-03T07:53:50.937Z,98138.72
2018-03-03T07:56:17.301Z,98148.96
2018-03-03T07:58:47.739Z,98137.16
2018-03-03T08:01:14.154Z,98143.92
2018-03-03T08:03:40.618Z,98150.73
2018-03-03T08:06:07.085Z,98157.13
2018-03-03T08:08:33.481Z,98160.02
2018-03-03T08:10:59.919Z,98163.05
2018-03-03T08:13:26.273Z,98152.69
2018-03-03T08:15:52.682Z,98147.30
2018-03-03T08:18:19.037Z,98143.49
2018-03-03T08:20:45.400Z,98137.33
2018-03-03T08:23:11.801Z,98144.05
2018-03-03T08:25:38.219Z,98151.58
2018-03-03T08:28:04.642Z,98162.97
2018-03-03T08:30:31.030Z,98161.30
2018-03-03T08:32:57.426Z,98165.20
2018-03-03T08:35:23.818Z,98175.75
2018-03-03T08:37:50.241Z,98168.55
2018-03-03T08:40:16.612Z,98183.09
2018-03-03T08:42:43.021Z,98174.55
2018-03-03T08:45:09.418Z,98184.61
2018-03-03T08:47:35.789Z,98181.61
2018-03-03T08:50:02.242Z,98188.57
2018-03-03T08:52:28.676Z,98187.53
2018-03-03T08:54:55.107Z,98192.00
2018-03-03T08:57:21.482Z,98192.22
2018-03-03T08:59:47.978Z,98191.84
2018-03-03T09:02:14.372Z,98192.38
2018-03-03T09:04:40.785Z,98195.52
2018-03-03T09:07:07.198Z,98193.27
2018-03-03T09:09:33.565Z,98206.36
2018-03-03T09:12:00.052Z,98204.17
2018-03-03T09:14:26.456Z,98203.29
2018-03-03T09:16:52.947Z,98210.51
2018-03-03T09:19:19.381Z,98215.20
2018-03-03T09:21:45.761Z,98203.69
2018-03-03T09:24:12.156Z,98208.38
2018-03-03T09:26:38.535Z,98206.23
2018-03-03T09:29:04.974Z,98209.00
2018-03-03T09:31:31.429Z,98208.55
2018-03-03T09:33:57.837Z,98217.87
2018-03-03T09:36:24.271Z,98209.62
2018-03-03T09:38:50.717Z,98218.02
2018-03-03T09:41:17.075Z,98208.48
2018-03-03T09:43:43.466Z,98211.09
2018-03-03T09:46:09.936Z,98221.46
2018-03-03T09:48:36.438Z,98227.72
2018-03-03T09:51:02.890Z,98223.77
2018-03-03T09:53:29.397Z,98219.30
2018-03-03T09:55:55.832Z,98226.04
2018-03-03T09:58:22.161Z,98224.44
2018-03-03T10:00:48.581Z,98223.42
2018-03-03T10:03:14.983Z,98235.88
2018-03-03T10:05:41.313Z,98234.70
2018-03-03T10:08:07.647Z,98228.68
2018-03-03T10:10:34.191Z,98219.13
2018-03-03T10:13:00.599Z,98221.34
2018-03-03T10:15:27.002Z,98216.18
2018-03-03T10:17:53.385Z,98219.25
2018-03-03T10:20:19.801Z,98221.89
2018-03-03T10:22:46.191Z,98222.60
2018-03-03T10:25:12.574Z,98216.06
2018-03-03T10:27:39.020Z,98221.85
2018-03-03T10:30:05.365Z,98232.82
2018-03-03T10:32:31.831Z,98218.56
2018-03-03T10:34:58.247Z,98218.88
2018-03-03T10:37:24.630Z,98206.02
2018-03-03T10:39:51.054Z,98201.14
2018-03-03T10:42:17.500Z,98200.53
2018-03-03T10:44:43.887Z,98204.27
2018-03-03T10:47:10.281Z,98193.40
2018-03-03T10:49:36.675Z,98203.50
2018-03-03T10:52:03.209Z,98202.15
2018-03-03T10:54:29.628Z,98194.75
2018-03-03T10:56:56.012Z,98205.05
2018-03-03T10:59:22.381Z,98200.13
2018-03-03T11:01:48.730Z,98191.21
2018-03-03T11:04:15.150Z,98194.30
2018-03-03T11:06:41.545Z,98202.08
2018-03-03T11:09:07.986Z,98196.19
2018-03-03T11:11:34.388Z,98192.75
2018-03-03T11:14:00.778Z,98186.35
2018-03-03T11:16:27.149Z,98189.09
2018-03-03T11:18:53.566Z,98191.29
2018-03-03T11:21:19.940Z,98191.29
2018-03-03T11:23:46.297Z,98192.64
2018-03-03T11:26:12.746Z,98190.63
2018-03-03T11:28:39.162Z,98194.22
2018-03-03T11:31:05.626Z,98199.66
2018-03-03T11:33:32.010Z,98195.11
2018-03-03T11:35:58.355Z,98192.14
2018-03-03T11:38:24.818Z,98194.69
2018-03-03T11:40:51.232Z,98194.11
2018-03-03T11:43:17.637Z,98194.60
2018-03-03T11:45:43.998Z,98192.16
2018-03-03T11:48:10.434Z,98186.86
2018-03-03T11:50:36.833Z,98188.98
2018-03-03T11:53:03.286Z,98184.55
2018-03-03T11:55:29.644Z,98186.55
2018-03-03T11:57:56.062Z,98193.00
2018-03-03T12:00:22.486Z,98195.31
2018-03-03T12:02:48.969Z,98201.03
2018-03-03T12:05:15.392Z,98198.78
2018-03-03T12:07:41.802Z,98205.22
2018-03-03T12:10:08.202Z,98195.36
2018-03-03T12:12:34.604Z,98192.17
2018-03-03T12:15:01.026Z,98191.48
2018-03-03T12:17:27.420Z,98189.44
2018-03-03T12:19:53.779Z,98182.84
2018-03-03T12:22:20.148Z,98186.30
2018-03-03T12:24:46.517Z,98189.67
2018-03-03T12:27:12.994Z,98183.84
2018-03-03T12:29:39.391Z,98182.84
2018-03-03T12:32:05.785Z,98177.16
2018-03-03T12:34:32.166Z,98170.97
2018-03-03T12:36:58.569Z,98166.69
2018-03-03T12:39:25.006Z,98163.97
2018-03-03T12:41:51.406Z,98165.17
2018-03-03T12:44:17.739Z,98168.95
2018-03-03T12:46:44.108Z,98167.13
2018-03-03T12:49:10.550Z,98157.36
2018-03-03T12:51:36.955Z,98153.89
2018-03-03T12:54:03.313Z,98152.02
2018-03-03T12:56:29.692Z,98152.09
2018-03-03T12:58:56.134Z,98149.39
2018-03-03T13:01:22.555Z,98147.88
2018-03-03T13:03:48.914Z,98145.19
2018-03-03T13:06:15.315Z,98153.83
2018-03-03T13:08:41.716Z,98151.38
2018-03-03T13:11:08.227Z,98152.05
2018-03-03T13:13:34.597Z,98157.36
2018-03-03T13:16:07.918Z,98151.53
2018-03-03T13:18:34.344Z,98154.46
2018-03-03T13:21:00.758Z,98156.13
2018-03-03T13:23:27.174Z,98159.09
2018-03-03T13:25:53.515Z,98170.47
2018-03-03T13:28:19.938Z,98166.08
2018-03-03T13:30:46.282Z,98166.27
2018-03-03T13:33:12.683Z,98170.13
2018-03-03T13:35:39.135Z,98159.97
2018-03-03T13:38:05.551Z,98160.70
2018-03-03T13:40:31.930Z,98159.25
2018-03-03T13:42:58.317Z,98153.40
2018-03-03T13:45:24.750Z,98151.08
2018-03-03T13:47:51.306Z,98150.12
2018-03-03T13:50:17.745Z,98138.91
2018-03-03T13:52:44.107Z,98133.55
2018-03-03T13:55:10.490Z,98130.80
2018-03-03T13:57:36.880Z,98131.61
2018-03-03T14:00:03.297Z,98131.06
2018-03-03T14:02:29.688Z,98129.39
2018-03-03T14:04:56.077Z,98132.76
2018-03-03T14:07:22.492Z,98130.75
2018-03-03T14:09:48.870Z,98127.86
2018-03-03T14:12:15.309Z,98133.59
2018-03-03T14:14:41.762Z,98138.05
2018-03-03T14:17:08.147Z,98136.63
2018-03-03T14:19:34.922Z,98134.73
2018-03-03T14:22:01.321Z,98140.32
2018-03-03T14:24:27.693Z,98145.57
2018-03-03T14:26:54.042Z,98150.28
2018-03-03T14:29:20.416Z,98150.91
2018-03-03T14:31:46.766Z,98152.23
2018-03-03T14:34:13.134Z,98161.42
2018-03-03T14:36:39.509Z,98168.09
2018-03-03T14:39:05.902Z,98161.52
2018-03-03T14:41:32.254Z,98160.61
2018-03-03T14:43:58.688Z,98167.64
2018-03-03T14:46:25.060Z,98174.08
2018-03-03T14:48:51.403Z,98178.35
2018-03-03T14:51:17.852Z,98168.64
2018-03-03T14:53:44.222Z,98163.87
2018-03-03T14:56:10.618Z,98171.04
2018-03-03T14:58:36.952Z,98180.78
2018-03-03T15:01:03.317Z,98184.43
2018-03-03T15:03:29.676Z,98178.05
2018-03-03T15:05:56.102Z,98183.91
2018-03-03T15:08:22.463Z,98183.43
2018-03-03T15:10:48.804Z,98186.77
2018-03-03T15:13:15.170Z,98186.97
2018-03-03T15:15:41.572Z,98185.01
2018-03-03T15:18:07.939Z,98191.38
2018-03-03T15:20:34.317Z,98197.97
2018-03-03T15:23:00.688Z,98198.75
2018-03-03T15:25:27.091Z,98204.23
2018-03-03T15:27:53.453Z,98204.77
2018-03-03T15:30:19.834Z,98203.94
2018-03-03T15:32:46.220Z,98203.65
2018-03-03T15:35:12.631Z,98203.52
2018-03-03T15:37:39.106Z,98210.57
2018-03-03T15:40:05.543Z,98214.09
2018-03-03T15:42:32.030Z,98216.91
2018-03-03T15:44:58.438Z,98209.36
2018-03-03T15:47:24.798Z,98215.34
2018-03-03T15:49:51.179Z,98220.06
2018-03-03T15:52:17.562Z,98231.61
2018-03-03T15:54:43.938Z,98233.85
2018-03-03T15:57:10.310Z,98226.75
2018-03-03T15:59:36.685Z,98224.60
2018-03-03T16:02:03.222Z,98229.62
2018-03-03T16:04:29.746Z,98234.89
2018-03-03T16:06:56.836Z,98242.95
2018-03-03T16:09:23.211Z,98243.44
2018-03-03T16:11:49.698Z,98234.55
2018-03-03T16:14:16.054Z,98231.68
2018-03-03T16:16:42.451Z,98241.73
2018-03-03T16:19:08.863Z,98253.41
2018-03-03T16:21:35.253Z,98254.70
2018-03-03T16:24:01.701Z,98259.20
2018-03-03T16:26:28.089Z,98261.33
2018-03-03T16:28:54.534Z,98258.07
2018-03-03T16:31:20.960Z,98255.45
2018-03-03T16:33:47.359Z,98257.22
2018-03-03T16:36:13.769Z,98255.16
2018-03-03T16:38:40.147Z,98259.72
2018-03-03T16:41:06.514Z,98260.03
2018-03-03T16:43:32.935Z,98263.63
2018-03-03T16:45:59.281Z,98272.45
2018-03-03T16:48:25.650Z,98267.48
2018-03-03T16:50:52.093Z,98262.58
2018-03-03T16:53:18.465Z,98262.37
2018-03-03T16:55:44.939Z,98264.00
2018-03-03T16:58:11.350Z,98268.47
2018-03-03T17:00:37.714Z,98275.75
2018-03-03T17:03:04.064Z,98276.54
2018-03-03T17:05:30.461Z,98268.05
2018-03-03T17:07:56.814Z,98274.51
2018-03-03T17:10:23.274Z,98277.66
2018-03-03T17:12:49.709Z,98278.30
2018-03-03T17:15:18.808Z,98284.39
2018-03-03T17:17:46.211Z,98283.85
2018-03-03T17:20:12.639Z,98286.09
2018-03-03T17:22:39.071Z,98298.41
2018-03-03T17:25:05.575Z,98291.94
2018-03-03T17:27:31.937Z,98292.30
2018-03-03T17:29:58.339Z,98297.20
2018-03-03T17:32:24.727Z,98293.63
2018-03-03T17:34:51.184Z,98284.89
2018-03-03T17:37:17.577Z,98279.37
2018-03-03T17:39:43.946Z,98280.78
2018-03-03T17:42:10.375Z,98283.70
2018-03-03T17:44:36.819Z,98285.11
2018-03-03T17:47:03.178Z,98295.69
2018-03-03T17:49:29.566Z,98294.50
2018-03-03T17:51:55.931Z,98292.35
2018-03-03T17:54:22.326Z,98294.88
2018-03-03T17:56:48.689Z,98298.50
2018-03-03T17:59:15.047Z,98298.92
2018-03-03T18:01:41.452Z,98287.00
2018-03-03T18:04:07.890Z,98290.17
2018-03-03T18:06:34.224Z,98291.88
2018-03-03T18:09:00.710Z,98280.16
2018-03-03T18:11:27.094Z,98282.00
2018-03-03T18:13:54.422Z,98273.84
2018-03-03T18:16:20.831Z,98273.53
2018-03-03T18:18:47.268Z,98289.16
2018-03-03T18:21:13.631Z,98281.91
2018-03-03T18:23:40.007Z,98275.88
2018-03-03T18:26:06.455Z,98275.03
2018-03-03T18:28:32.878Z,98276.22
2018-03-03T18:30:59.272Z,98286.25
2018-03-03T18:33:25.698Z,98274.92
2018-03-03T18:35:52.066Z,98275.88
2018-03-03T18:38:18.429Z,98281.66
2018-03-03T18:40:44.853Z,98275.62
2018-03-03T18:43:11.247Z,98269.63
2018-03-03T18:45:37.646Z,98268.73
2018-03-03T18:48:04.114Z,98270.08
2018-03-03T18:50:30.483Z,98273.63
2018-03-03T18:52:56.850Z,98276.68
2018-03-03T18:55:23.324Z,98276.73
2018-03-03T18:57:49.695Z,98278.20
2018-03-03T19:00:16.070Z,98279.08
2018-03-03T19:02:42.515Z,98280.44
2018-03-03T19:05:08.911Z,98281.80
2018-03-03T19:07:35.271Z,98287.03
2018-03-03T19:10:01.695Z,98283.24
2018-03-03T19:12:28.156Z,98289.44
2018-03-03T19:14:54.519Z,98290.56
2018-03-03T19:17:20.970Z,98291.75
2018-03-03T19:19:47.359Z,98295.64
2018-03-03T19:22:13.755Z,98293.97
2018-03-03T19:24:40.354Z,98293.17
2018-03-03T19:27:06.806Z,98289.31
2018-03-03T19:29:33.187Z,98284.53
2018-03-03T19:31:59.590Z,98291.09
2018-03-03T19:34:25.987Z,98295.22
2018-03-03T19:36:52.395Z,98285.16
2018-03-03T19:39:18.831Z,98278.64
2018-03-03T19:41:45.252Z,98283.38
2018-03-03T19:44:11.595Z,98285.16
2018-03-03T19:46:37.998Z,98280.88
2018-03-03T19:49:04.402Z,98277.87
2018-03-03T19:51:30.842Z,98274.94
2018-03-03T19:53:57.232Z,98266.16
2018-03-03T19:56:23.606Z,98265.82
2018-03-03T19:58:50.003Z,98256.57
2018-03-03T20:01:16.418Z,98249.69
2018-03-03T20:03:42.852Z,98263.55
2018-03-03T20:06:09.224Z,98255.44
2018-03-03T20:08:35.596Z,98248.58
2018-03-03T20:11:02.066Z,98251.16
2018-03-03T20:13:28.439Z,98255.01
2018-03-03T20:15:54.822Z,98256.70
2018-03-03T20:18:21.209Z,98260.07
2018-03-03T20:20:47.600Z,98256.94
2018-03-03T20:23:13.994Z,98258.69
2018-03-03T20:25:40.407Z,98253.88
2018-03-03T20:28:06.786Z,98254.86
2018-03-03T20:30:33.294Z,98256.11
2018-03-03T20:32:59.762Z,98247.53
2018-03-03T20:35:26.159Z,98247.08
2018-03-03T20:37:52.543Z,98245.80
2018-03-03T20:40:18.951Z,98234.60
2018-03-03T20:42:45.358Z,98239.16
2018-03-03T20:45:11.791Z,98239.30
2018-03-03T20:47:38.241Z,98241.79
2018-03-03T20:50:04.659Z,98237.88
2018-03-03T20:52:31.150Z,98230.90
2018-03-03T20:54:57.499Z,98235.34
2018-03-03T20:57:23.867Z,98239.67
2018-03-03T20:59:50.307Z,98243.47
2018-03-03T21:02:16.713Z,98249.89
2018-03-03T21:04:43.122Z,98248.05
2018-03-03T21:07:09.498Z,98257.16
2018-03-03T21:09:35.880Z,98259.96
2018-03-03T21:12:03.373Z,98262.87
2018-03-03T21:14:29.767Z,98260.73
2018-03-03T21:16:56.174Z,98245.42
2018-03-03T21:19:22.691Z,98237.63
2018-03-03T21:21:49.166Z,98257.07
2018-03-03T21:24:15.529Z,98250.02
2018-03-03T21:26:41.906Z,98232.63
2018-03-03T21:29:08.323Z,98231.02
2018-03-03T21:31:34.758Z,98235.34
2018-03-03T21:34:01.147Z,98223.45
2018-03-03T21:36:27.563Z,98225.75
2018-03-03T21:38:53.950Z,98226.83
2018-03-03T21:41:20.387Z,98219.59
2018-03-03T21:43:46.817Z,98211.45
2018-03-03T21:46:13.174Z,98211.26
2018-03-03T21:48:39.606Z,98209.53
2018-03-03T21:51:06.023Z,98202.52
2018-03-03T21:53:32.500Z,98200.56
2018-03-03T21:55:58.883Z,98204.30
2018-03-03T21:58:25.314Z,98211.74
2018-03-03T22:00:51.717Z,98212.62
2018-03-03T22:03:18.146Z,98207.55
2018-03-03T22:05:44.609Z,98200.25
2018-03-03T22:08:11.108Z,98194.36
2018-03-03T22:10:37.445Z,98188.53
2018-03-03T22:13:03.895Z,98186.92
2018-03-03T22:15:30.394Z,98188.61
2018-03-03T22:17:56.779Z,98194.59
2018-03-03T22:20:23.210Z,98183.98
2018-03-03T22:22:49.605Z,98184.17
2018-03-03T22:25:15.963Z,98181.28
2018-03-03T22:27:42.374Z,98188.30
2018-03-03T22:30:08.737Z,98189.27
2018-03-03T22:32:35.144Z,98179.95
2018-03-03T22:35:01.626Z,98192.92
2018-03-03T22:37:28.144Z,98193.41
2018-03-03T22:39:54.564Z,98198.67
2018-03-03T22:42:21.074Z,98192.25
2018-03-03T22:44:47.422Z,98189.55
2018-03-03T22:47:13.859Z,98181.80
2018-03-03T22:49:40.262Z,98191.03
2018-03-03T22:52:06.684Z,98197.91
2018-03-03T22:54:33.098Z,98194.65
2018-03-03T22:56:59.526Z,98198.13
2018-03-03T22:59:25.981Z,98186.02
2018-03-03T23:01:52.426Z,98180.45
2018-03-03T23:04:18.931Z,98178.09
2018-03-03T23:06:45.345Z,98174.93
2018-03-03T23:09:11.799Z,98167.34
2018-03-03T23:11:38.240Z,98168.50
2018-03-03T23:14:04.637Z,98180.25
2018-03-03T23:16:31.002Z,98187.27
2018-03-03T23:18:57.389Z,98188.11
2018-03-03T23:21:23.912Z,98176.20
2018-03-03T23:23:50.465Z,98176.88
2018-03-03T23:26:16.878Z,98178.49
2018-03-03T23:28:43.305Z,98162.00
2018-03-03T23:31:09.782Z,98159.79
2018-03-03T23:33:36.151Z,98162.30
2018-03-03T23:36:02.494Z,98160.66
2018-03-03T23:38:28.862Z,98166.69
2018-03-03T23:40:55.273Z,98165.88
2018-03-03T23:43:21.757Z,98179.70
2018-03-03T23:45:48.158Z,98177.64
2018-03-03T23:48:14.598Z,98189.45
2018-03-03T23:50:41.058Z,98181.19
2018-03-03T23:53:07.490Z,98162.02
2018-03-03T23:55:33.877Z,98148.52
2018-03-03T23:58:00.231Z,98151.19
